createdAt,value
2016-02-26T00:00:57.312Z,0
2016-02-26T00:01:57.300Z,0
2016-02-26T00:02:57.302Z,0
2016-02-26T00:03:57.290Z,0
2016-02-26T00:04:57.292Z,0
2016-02-26T00:05:57.295Z,0
2016-02-26T00:06:57.298Z,0
2016-02-26T00:07:57.268Z,0
2016-02-26T00:08:57.256Z,0
2016-02-26T00:09:57.289Z,0
2016-02-26T00:10:57.261Z,0
2016-02-26T00:11:57.279Z,0
2016-02-26T00:12:57.267Z,0
2016-02-26T00:13:57.238Z,0
2016-02-26T00:14:57.226Z,0
2016-02-26T00:15:57.259Z,0
2016-02-26T00:16:57.278Z,0
2016-02-26T00:17:57.217Z,0
2016-02-26T00:18:57.205Z,0
2016-02-26T00:19:57.255Z,0
2016-02-26T00:20:57.211Z,0
2016-02-26T00:21:57.213Z,0
2016-02-26T00:22:57.216Z,0
2016-02-26T00:23:57.218Z,0
2016-02-26T00:24:57.189Z,0
2016-02-26T00:25:57.177Z,0
2016-02-26T00:26:57.210Z,0
2016-02-26T00:27:57.214Z,0
2016-02-26T00:28:57.185Z,0
2016-02-26T00:29:57.171Z,0
2016-02-26T00:30:57.002Z,0
2016-02-26T00:31:57.162Z,0
2016-02-26T00:32:57.165Z,0
2016-02-26T00:33:57.135Z,0
2016-02-26T00:34:57.154Z,0
2016-02-26T00:35:57.141Z,0
2016-02-26T00:36:57.128Z,0
2016-02-26T00:37:57.084Z,0
2016-02-26T00:38:57.148Z,0
2016-02-26T00:39:57.120Z,0
2016-02-26T00:40:57.092Z,0
2016-02-26T00:41:57.095Z,0
2016-02-26T00:42:57.097Z,0
2016-02-26T00:43:57.100Z,0
2016-02-26T00:44:57.072Z,0
2016-02-26T00:45:57.075Z,0
2016-02-26T00:46:57.077Z,0
2016-02-26T00:47:57.064Z,0
2016-02-26T00:48:57.050Z,0
2016-02-26T00:49:56.866Z,0
2016-02-26T00:50:57.072Z,0
2016-02-26T00:51:57.012Z,0
2016-02-26T00:52:57.062Z,0
2016-02-26T00:53:56.846Z,0
2016-02-26T00:54:57.005Z,0
2016-02-26T00:55:56.991Z,0
2016-02-26T00:56:56.979Z,0
2016-02-26T00:57:56.997Z,0
2016-02-26T00:58:57.000Z,0
2016-02-26T00:59:56.972Z,0
2016-02-26T01:00:56.990Z,0
2016-02-26T01:01:56.945Z,0
2016-02-26T01:02:56.948Z,0
2016-02-26T01:03:56.936Z,0
2016-02-26T01:04:56.938Z,0
2016-02-26T01:05:56.925Z,0
2016-02-26T01:06:56.912Z,0
2016-02-26T01:07:56.915Z,0
2016-02-26T01:08:57.214Z,0
2016-02-26T01:09:56.951Z,0
2016-02-26T01:10:56.892Z,0
2016-02-26T01:11:56.883Z,0
2016-02-26T01:12:56.858Z,0
2016-02-26T01:13:56.848Z,0
2016-02-26T01:14:56.839Z,0
2016-02-26T01:15:56.798Z,0
2016-02-26T01:16:56.639Z,0
2016-02-26T01:17:56.778Z,0
2016-02-26T01:18:56.793Z,0
2016-02-26T01:19:56.791Z,0
2016-02-26T01:20:56.742Z,0
2016-02-26T01:21:56.822Z,0
2016-02-26T01:22:56.745Z,0
2016-02-26T01:23:56.746Z,0
2016-02-26T01:24:56.747Z,0
2016-02-26T01:25:56.701Z,0
2016-02-26T01:26:56.703Z,0
2016-02-26T01:27:56.705Z,0
2016-02-26T01:28:56.723Z,0
2016-02-26T01:29:56.678Z,0
2016-02-26T01:30:56.680Z,0
2016-02-26T01:31:56.541Z,0
2016-02-26T01:32:56.669Z,0
2016-02-26T01:33:56.640Z,0
2016-02-26T01:34:56.644Z,0
2016-02-26T01:35:56.646Z,0
2016-02-26T01:36:56.696Z,0
2016-02-26T01:37:55.901Z,0
2016-02-26T01:38:56.638Z,0
2016-02-26T01:39:56.626Z,0
2016-02-26T01:40:56.660Z,0
2016-02-26T01:41:56.599Z,0
2016-02-26T01:42:56.587Z,0
2016-02-26T01:43:56.590Z,0
2016-02-26T01:44:56.592Z,0
2016-02-26T01:45:56.579Z,0
2016-02-26T01:46:56.582Z,0
2016-02-26T01:47:56.569Z,0
2016-02-26T01:48:56.540Z,0
2016-02-26T01:49:56.543Z,0
2016-02-26T01:50:56.670Z,0
2016-02-26T01:51:56.548Z,0
2016-02-26T01:52:56.536Z,0
2016-02-26T01:53:56.523Z,0
2016-02-26T01:54:56.509Z,0
2016-02-26T01:55:56.497Z,0
2016-02-26T01:56:56.531Z,0
2016-02-26T01:57:56.503Z,0
2016-02-26T01:58:56.489Z,0
2016-02-26T01:59:56.476Z,0
2016-02-26T02:00:56.494Z,0
2016-02-26T02:01:56.513Z,0
2016-02-26T02:02:56.500Z,0
2016-02-26T02:03:56.471Z,0
2016-02-26T02:04:56.458Z,0
2016-02-26T02:05:56.461Z,0
2016-02-26T02:06:56.449Z,0
2016-02-26T02:07:56.451Z,0
2016-02-26T02:08:56.422Z,0
2016-02-26T02:09:56.424Z,0
2016-02-26T02:10:56.428Z,0
2016-02-26T02:11:56.415Z,0
2016-02-26T02:12:56.418Z,0
2016-02-26T02:13:56.420Z,0
2016-02-26T02:14:56.423Z,0
2016-02-26T02:15:56.394Z,0
2016-02-26T02:16:56.381Z,0
2016-02-26T02:17:56.368Z,0
2016-02-26T02:18:56.371Z,0
2016-02-26T02:19:56.342Z,0
2016-02-26T02:20:56.361Z,0
2016-02-26T02:21:56.332Z,0
2016-02-26T02:22:56.350Z,0
2016-02-26T02:23:56.322Z,0
2016-02-26T02:24:56.340Z,0
2016-02-26T02:25:56.328Z,0
2016-02-26T02:26:56.330Z,0
2016-02-26T02:27:56.348Z,0
2016-02-26T02:28:56.320Z,0
2016-02-26T02:29:56.323Z,0
2016-02-26T02:30:56.325Z,0
2016-02-26T02:31:56.281Z,0
2016-02-26T02:32:56.268Z,0
2016-02-26T02:33:56.272Z,0
2016-02-26T02:34:56.258Z,0
2016-02-26T02:35:56.277Z,0
2016-02-26T02:36:56.232Z,0
2016-02-26T02:37:56.235Z,0
2016-02-26T02:38:56.237Z,0
2016-02-26T02:39:56.240Z,0
2016-02-26T02:40:56.071Z,0
2016-02-26T02:41:56.199Z,0
2016-02-26T02:42:56.202Z,0
2016-02-26T02:43:56.204Z,0
2016-02-26T02:44:56.175Z,0
2016-02-26T02:45:56.037Z,0
2016-02-26T02:46:56.150Z,0
2016-02-26T02:47:56.152Z,0
2016-02-26T02:48:56.140Z,0
2016-02-26T02:49:56.126Z,0
2016-02-26T02:50:56.160Z,0
2016-02-26T02:51:56.115Z,0
2016-02-26T02:52:56.118Z,0
2016-02-26T02:53:56.121Z,0
2016-02-26T02:54:56.109Z,0
2016-02-26T02:55:56.096Z,0
2016-02-26T02:56:55.926Z,0
2016-02-26T02:57:56.085Z,0
2016-02-26T02:58:56.103Z,0
2016-02-26T02:59:56.092Z,0
2016-02-26T03:00:56.125Z,0
2016-02-26T03:01:56.050Z,0
2016-02-26T03:02:56.052Z,0
2016-02-26T03:03:56.039Z,0
2016-02-26T03:04:56.026Z,0
2016-02-26T03:05:55.908Z,0
2016-02-26T03:06:56.021Z,0
2016-02-26T03:07:56.039Z,0
2016-02-26T03:08:55.995Z,0
2016-02-26T03:09:56.014Z,0
2016-02-26T03:10:56.016Z,0
2016-02-26T03:11:55.989Z,0
2016-02-26T03:12:55.991Z,0
2016-02-26T03:13:55.978Z,0
2016-02-26T03:14:55.966Z,0
2016-02-26T03:15:56.264Z,0
2016-02-26T03:16:55.955Z,0
2016-02-26T03:17:56.004Z,0
2016-02-26T03:18:55.944Z,0
2016-02-26T03:19:55.916Z,0
2016-02-26T03:20:55.919Z,0
2016-02-26T03:21:55.905Z,0
2016-02-26T03:22:55.893Z,0
2016-02-26T03:23:55.910Z,0
2016-02-26T03:24:55.883Z,0
2016-02-26T03:25:55.885Z,0
2016-02-26T03:26:55.888Z,0
2016-02-26T03:27:55.875Z,0
2016-02-26T03:28:55.878Z,0
2016-02-26T03:29:55.849Z,0
2016-02-26T03:30:55.884Z,0
2016-02-26T03:31:55.839Z,0
2016-02-26T03:32:55.842Z,0
2016-02-26T03:33:55.812Z,0
2016-02-26T03:34:55.862Z,0
2016-02-26T03:35:55.865Z,0
2016-02-26T03:36:55.805Z,0
2016-02-26T03:37:55.793Z,0
2016-02-26T03:38:55.780Z,0
2016-02-26T03:39:55.783Z,0
2016-02-26T03:40:55.785Z,0
2016-02-26T03:41:55.772Z,0
2016-02-26T03:42:55.759Z,0
2016-02-26T03:43:55.778Z,0
2016-02-26T03:44:55.733Z,0
2016-02-26T03:45:55.752Z,0
2016-02-26T03:46:55.738Z,0
2016-02-26T03:47:55.725Z,0
2016-02-26T03:48:55.713Z,0
2016-02-26T03:49:55.699Z,0
2016-02-26T03:50:55.688Z,0
2016-02-26T03:51:55.705Z,0
2016-02-26T03:52:55.723Z,0
2016-02-26T03:53:55.726Z,0
2016-02-26T03:54:55.651Z,0
2016-02-26T03:55:55.685Z,0
2016-02-26T03:56:55.641Z,0
2016-02-26T03:57:55.674Z,0
2016-02-26T03:58:55.630Z,0
2016-02-26T03:59:55.632Z,0
2016-02-26T04:00:55.635Z,0
2016-02-26T04:01:55.670Z,0
2016-02-26T04:02:55.595Z,0
2016-02-26T04:03:55.643Z,0
2016-02-26T04:04:55.584Z,0
2016-02-26T04:05:55.602Z,0
2016-02-26T04:06:55.589Z,0
2016-02-26T04:07:55.592Z,0
2016-02-26T04:08:55.563Z,0
2016-02-26T04:09:55.566Z,0
2016-02-26T04:10:55.553Z,0
2016-02-26T04:11:55.571Z,0
2016-02-26T04:12:55.542Z,0
2016-02-26T04:13:55.546Z,0
2016-02-26T04:14:55.564Z,0
2016-02-26T04:15:55.567Z,0
2016-02-26T04:16:55.538Z,0
2016-02-26T04:17:55.494Z,0
2016-02-26T04:18:55.512Z,0
2016-02-26T04:19:55.483Z,0
2016-02-26T04:20:55.486Z,0
2016-02-26T04:21:55.489Z,0
2016-02-26T04:22:55.460Z,0
2016-02-26T04:23:55.307Z,0
2016-02-26T04:24:55.465Z,0
2016-02-26T04:25:55.452Z,0
2016-02-26T04:26:55.456Z,0
2016-02-26T04:27:55.427Z,0
2016-02-26T04:28:55.430Z,0
2016-02-26T04:29:55.432Z,0
2016-02-26T04:30:55.404Z,0
2016-02-26T04:31:55.422Z,0
2016-02-26T04:32:55.394Z,0
2016-02-26T04:33:55.396Z,0
2016-02-26T04:34:55.384Z,0
2016-02-26T04:35:55.386Z,0
2016-02-26T04:36:55.357Z,0
2016-02-26T04:37:55.391Z,0
2016-02-26T04:38:55.347Z,0
2016-02-26T04:39:55.351Z,0
2016-02-26T04:40:55.337Z,0
2016-02-26T04:41:55.324Z,0
2016-02-26T04:42:55.342Z,0
2016-02-26T04:43:55.345Z,0
2016-02-26T04:44:55.301Z,0
2016-02-26T04:45:55.320Z,0
2016-02-26T04:46:55.275Z,0
2016-02-26T04:47:55.294Z,0
2016-02-26T04:48:55.264Z,0
2016-02-26T04:49:55.283Z,0
2016-02-26T04:50:55.269Z,0
2016-02-26T04:51:55.272Z,0
2016-02-26T04:52:55.245Z,0
2016-02-26T04:53:55.232Z,0
2016-02-26T04:54:55.249Z,0
2016-02-26T04:55:55.315Z,0
2016-02-26T04:56:55.207Z,0
2016-02-26T04:57:55.211Z,0
2016-02-26T04:58:55.042Z,0
2016-02-26T04:59:55.185Z,0
2016-02-26T05:00:55.172Z,0
2016-02-26T05:01:55.174Z,0
2016-02-26T05:02:55.162Z,0
2016-02-26T05:03:55.148Z,0
2016-02-26T05:04:55.126Z,0
2016-02-26T05:05:55.144Z,0
2016-02-26T05:06:55.132Z,0
2016-02-26T05:07:55.134Z,0
2016-02-26T05:08:55.121Z,0
2016-02-26T05:09:55.124Z,0
2016-02-26T05:10:55.096Z,0
2016-02-26T05:11:55.098Z,0
2016-02-26T05:12:55.085Z,0
2016-02-26T05:13:55.088Z,0
2016-02-26T05:14:55.075Z,0
2016-02-26T05:15:55.234Z,0
2016-02-26T05:16:55.064Z,0
2016-02-26T05:17:55.052Z,0
2016-02-26T05:18:55.039Z,0
2016-02-26T05:19:55.026Z,0
2016-02-26T05:20:55.013Z,0
2016-02-26T05:21:55.016Z,0
2016-02-26T05:22:55.019Z,0
2016-02-26T05:23:55.005Z,0
2016-02-26T05:24:54.992Z,0
2016-02-26T05:25:54.964Z,0
2016-02-26T05:26:54.967Z,0
2016-02-26T05:27:54.953Z,0
2016-02-26T05:28:54.956Z,0
2016-02-26T05:29:54.943Z,0
2016-02-26T05:30:54.962Z,0
2016-02-26T05:31:54.964Z,0
2016-02-26T05:32:54.920Z,0
2016-02-26T05:33:54.923Z,0
2016-02-26T05:34:54.910Z,0
2016-02-26T05:35:54.975Z,0
2016-02-26T05:36:54.900Z,0
2016-02-26T05:37:54.887Z,0
2016-02-26T05:38:54.937Z,4
2016-02-26T05:39:54.876Z,4
2016-02-26T05:40:54.863Z,4
2016-02-26T05:41:54.850Z,0
2016-02-26T05:42:54.853Z,0
2016-02-26T05:43:54.825Z,4
2016-02-26T05:44:54.843Z,4
2016-02-26T05:45:54.831Z,4
2016-02-26T05:46:54.833Z,4
2016-02-26T05:47:54.804Z,4
2016-02-26T05:48:54.792Z,8
2016-02-26T05:49:54.779Z,8
2016-02-26T05:50:54.781Z,8
2016-02-26T05:51:54.784Z,8
2016-02-26T05:52:54.803Z,12
2016-02-26T05:53:54.743Z,16
2016-02-26T05:54:54.761Z,16
2016-02-26T05:55:54.747Z,20
2016-02-26T05:56:54.767Z,24
2016-02-26T05:57:53.972Z,28
2016-02-26T05:58:54.724Z,36
2016-02-26T05:59:54.711Z,40
2016-02-26T06:00:54.699Z,48
2016-02-26T06:01:54.686Z,56
2016-02-26T06:02:54.673Z,64
2016-02-26T06:03:54.675Z,76
2016-02-26T06:04:54.678Z,88
2016-02-26T06:05:54.680Z,96
2016-02-26T06:06:54.668Z,112
2016-02-26T06:07:54.640Z,128
2016-02-26T06:08:54.643Z,148
2016-02-26T06:09:54.629Z,164
2016-02-26T06:10:54.632Z,180
2016-02-26T06:11:54.665Z,204
2016-02-26T06:12:54.606Z,228
2016-02-26T06:13:54.593Z,248
2016-02-26T06:14:54.596Z,276
2016-02-26T06:15:54.599Z,304
2016-02-26T06:16:54.585Z,332
2016-02-26T06:17:54.588Z,364
2016-02-26T06:18:54.559Z,396
2016-02-26T06:19:53.797Z,424
2016-02-26T06:20:54.549Z,460
2016-02-26T06:21:54.537Z,492
2016-02-26T06:22:54.523Z,528
2016-02-26T06:23:54.526Z,568
2016-02-26T06:24:54.544Z,608
2016-02-26T06:25:54.516Z,648
2016-02-26T06:26:54.503Z,684
2016-02-26T06:27:54.521Z,728
2016-02-26T06:28:54.493Z,768
2016-02-26T06:29:54.495Z,808
2016-02-26T06:30:54.483Z,856
2016-02-26T06:31:54.485Z,904
2016-02-26T06:32:54.488Z,952
2016-02-26T06:33:54.443Z,996
2016-02-26T06:34:54.447Z,1044
2016-02-26T06:35:54.433Z,1092
2016-02-26T06:36:54.483Z,1136
2016-02-26T06:37:54.438Z,1184
2016-02-26T06:38:54.441Z,1240
2016-02-26T06:39:54.428Z,1292
2016-02-26T06:40:54.416Z,1340
2016-02-26T06:41:54.388Z,1388
2016-02-26T06:42:54.417Z,1436
2016-02-26T06:43:54.388Z,1476
2016-02-26T06:44:54.375Z,1520
2016-02-26T06:45:54.379Z,1572
2016-02-26T06:46:54.366Z,1616
2016-02-26T06:47:54.368Z,1664
2016-02-26T06:48:54.339Z,1704
2016-02-26T06:49:54.327Z,1756
2016-02-26T06:50:54.314Z,1800
2016-02-26T06:51:54.332Z,1836
2016-02-26T06:52:54.319Z,1888
2016-02-26T06:53:54.322Z,1932
2016-02-26T06:54:54.122Z,1980
2016-02-26T06:55:54.311Z,2024
2016-02-26T06:56:54.298Z,2052
2016-02-26T06:57:54.270Z,2108
2016-02-26T06:58:54.288Z,2204
2016-02-26T06:59:54.276Z,2212
2016-02-26T07:00:54.247Z,2256
2016-02-26T07:01:54.234Z,2308
2016-02-26T07:02:54.268Z,2352
2016-02-26T07:03:54.207Z,2396
2016-02-26T07:04:54.210Z,2436
2016-02-26T07:05:54.198Z,2468
2016-02-26T07:06:54.185Z,2508
2016-02-26T07:07:54.188Z,2536
2016-02-26T07:08:54.190Z,2576
2016-02-26T07:09:54.161Z,2660
2016-02-26T07:10:54.164Z,2664
2016-02-26T07:11:54.168Z,2696
2016-02-26T07:12:54.139Z,2740
2016-02-26T07:13:54.126Z,2772
2016-02-26T07:14:54.159Z,2808
2016-02-26T07:15:54.131Z,2840
2016-02-26T07:16:54.133Z,2868
2016-02-26T07:17:54.183Z,2904
2016-02-26T07:18:54.107Z,2936
2016-02-26T07:19:54.095Z,2968
2016-02-26T07:20:54.098Z,3000
2016-02-26T07:21:54.085Z,3032
2016-02-26T07:22:54.088Z,3068
2016-02-26T07:23:54.090Z,3108
2016-02-26T07:24:54.078Z,3140
2016-02-26T07:25:54.064Z,3308
2016-02-26T07:26:54.052Z,3228
2016-02-26T07:27:54.038Z,3268
2016-02-26T07:28:54.057Z,3304
2016-02-26T07:29:54.043Z,3348
2016-02-26T07:30:54.046Z,3416
2016-02-26T07:31:54.032Z,3544
2016-02-26T07:32:54.036Z,3764
2016-02-26T07:33:54.055Z,4080
2016-02-26T07:34:54.010Z,4356
2016-02-26T07:35:53.998Z,4608
2016-02-26T07:36:54.000Z,4756
2016-02-26T07:37:53.987Z,4872
2016-02-26T07:38:53.990Z,4912
2016-02-26T07:39:53.977Z,4964
2016-02-26T07:40:53.979Z,5020
2016-02-26T07:41:53.826Z,5076
2016-02-26T07:42:53.969Z,5192
2016-02-26T07:43:53.972Z,5224
2016-02-26T07:44:53.208Z,5260
2016-02-26T07:45:53.962Z,5280
2016-02-26T07:46:53.965Z,5280
2016-02-26T07:47:53.967Z,5288
2016-02-26T07:48:53.970Z,5296
2016-02-26T07:49:53.956Z,5332
2016-02-26T07:50:53.959Z,5344
2016-02-26T07:51:53.946Z,5364
2016-02-26T07:52:53.950Z,5340
2016-02-26T07:53:53.967Z,5340
2016-02-26T07:54:53.970Z,5328
2016-02-26T07:55:53.957Z,5348
2016-02-26T07:56:54.163Z,5388
2016-02-26T07:57:53.962Z,5432
2016-02-26T07:58:54.044Z,5432
2016-02-26T07:59:53.969Z,5428
2016-02-26T08:00:53.986Z,5420
2016-02-26T08:01:53.974Z,5388
2016-02-26T08:02:53.976Z,5368
2016-02-26T08:03:53.994Z,5332
2016-02-26T08:04:53.981Z,5296
2016-02-26T08:05:53.984Z,5284
2016-02-26T08:06:53.987Z,5272
2016-02-26T08:07:53.990Z,5256
2016-02-26T08:08:54.024Z,5244
2016-02-26T08:09:53.995Z,5240
2016-02-26T08:10:53.998Z,5212
2016-02-26T08:11:54.032Z,5204
2016-02-26T08:12:54.018Z,5196
2016-02-26T08:13:54.021Z,5184
2016-02-26T08:14:54.009Z,5160
2016-02-26T08:15:54.026Z,5132
2016-02-26T08:16:54.029Z,5124
2016-02-26T08:17:54.032Z,5136
2016-02-26T08:18:53.863Z,5128
2016-02-26T08:19:54.022Z,5084
2016-02-26T08:20:54.025Z,5088
2016-02-26T08:21:54.042Z,5076
2016-02-26T08:22:54.030Z,5076
2016-02-26T08:23:54.048Z,5068
2016-02-26T08:24:54.051Z,5060
2016-02-26T08:25:54.069Z,5048
2016-02-26T08:26:54.088Z,5044
2016-02-26T08:27:54.106Z,5124
2016-02-26T08:28:54.046Z,5148
2016-02-26T08:29:54.064Z,5160
2016-02-26T08:30:54.052Z,5104
2016-02-26T08:31:54.054Z,5116
2016-02-26T08:32:54.072Z,5136
2016-02-26T08:33:53.341Z,5140
2016-02-26T08:34:54.077Z,5148
2016-02-26T08:35:54.080Z,5144
2016-02-26T08:36:54.083Z,5164
2016-02-26T08:37:54.070Z,5260
2016-02-26T08:38:54.073Z,5212
2016-02-26T08:39:54.090Z,5244
2016-02-26T08:40:54.078Z,5252
2016-02-26T08:41:54.081Z,5252
2016-02-26T08:42:54.084Z,5296
2016-02-26T08:43:54.086Z,5304
2016-02-26T08:44:54.090Z,5216
2016-02-26T08:45:54.061Z,5412
2016-02-26T08:46:54.079Z,5460
2016-02-26T08:47:54.066Z,5424
2016-02-26T08:48:54.069Z,5408
2016-02-26T08:49:54.103Z,5408
2016-02-26T08:50:54.089Z,5440
2016-02-26T08:51:54.061Z,5472
2016-02-26T08:52:54.064Z,5504
2016-02-26T08:53:54.050Z,5516
2016-02-26T08:54:54.053Z,5540
2016-02-26T08:55:54.072Z,5604
2016-02-26T08:56:54.044Z,5576
2016-02-26T08:57:54.061Z,5568
2016-02-26T08:58:54.049Z,5620
2016-02-26T08:59:54.036Z,5660
2016-02-26T09:00:54.054Z,5668
2016-02-26T09:01:54.025Z,5532
2016-02-26T09:02:54.028Z,5728
2016-02-26T09:03:54.031Z,5736
2016-02-26T09:04:54.033Z,5764
2016-02-26T09:05:54.021Z,5760
2016-02-26T09:06:54.039Z,5856
2016-02-26T09:07:54.026Z,5844
2016-02-26T09:08:54.013Z,5856
2016-02-26T09:09:54.001Z,5856
2016-02-26T09:10:54.003Z,5876
2016-02-26T09:11:54.021Z,5908
2016-02-26T09:12:54.009Z,5956
2016-02-26T09:13:54.042Z,5992
2016-02-26T09:14:53.998Z,6012
2016-02-26T09:15:53.985Z,6064
2016-02-26T09:16:53.973Z,6056
2016-02-26T09:17:53.975Z,6080
2016-02-26T09:18:53.978Z,6052
2016-02-26T09:19:53.981Z,6160
2016-02-26T09:20:53.967Z,6216
2016-02-26T09:21:53.986Z,6176
2016-02-26T09:22:53.988Z,6188
2016-02-26T09:23:53.959Z,6176
2016-02-26T09:24:53.978Z,6152
2016-02-26T09:25:53.980Z,6164
2016-02-26T09:26:53.967Z,5868
2016-02-26T09:27:53.970Z,6228
2016-02-26T09:28:53.942Z,6324
2016-02-26T09:29:53.944Z,6356
2016-02-26T09:30:53.947Z,6080
2016-02-26T09:31:53.935Z,6080
2016-02-26T09:32:53.937Z,5944
2016-02-26T09:33:53.940Z,6256
2016-02-26T09:34:53.943Z,6308
2016-02-26T09:35:53.960Z,6288
2016-02-26T09:36:53.916Z,6324
2016-02-26T09:37:53.934Z,6512
2016-02-26T09:38:53.922Z,6548
2016-02-26T09:39:53.924Z,6552
2016-02-26T09:40:53.896Z,6532
2016-02-26T09:41:53.899Z,6568
2016-02-26T09:42:53.901Z,6600
2016-02-26T09:43:53.904Z,6616
2016-02-26T09:44:53.906Z,6660
2016-02-26T09:45:53.894Z,6536
2016-02-26T09:46:53.881Z,6536
2016-02-26T09:47:53.898Z,6496
2016-02-26T09:48:53.901Z,6724
2016-02-26T09:49:53.904Z,6768
2016-02-26T09:50:53.907Z,6796
2016-02-26T09:51:53.910Z,6812
2016-02-26T09:52:53.867Z,6820
2016-02-26T09:53:53.884Z,6824
2016-02-26T09:54:53.950Z,6788
2016-02-26T09:55:53.890Z,6796
2016-02-26T09:56:53.892Z,6504
2016-02-26T09:57:53.895Z,6132
2016-02-26T09:58:53.882Z,5968
2016-02-26T09:59:53.869Z,6456
2016-02-26T10:00:53.872Z,6832
2016-02-26T10:01:53.874Z,6880
2016-02-26T10:02:53.861Z,6852
2016-02-26T10:03:53.849Z,6772
2016-02-26T10:04:53.866Z,6796
2016-02-26T10:05:53.901Z,6836
2016-02-26T10:06:53.857Z,6872
2016-02-26T10:07:53.843Z,6896
2016-02-26T10:08:53.862Z,6660
2016-02-26T10:09:53.832Z,6900
2016-02-26T10:10:53.852Z,6892
2016-02-26T10:11:53.838Z,7008
2016-02-26T10:12:53.826Z,7008
2016-02-26T10:13:53.844Z,7052
2016-02-26T10:14:53.847Z,6920
2016-02-26T10:15:53.834Z,6640
2016-02-26T10:16:53.818Z,6368
2016-02-26T10:17:53.809Z,6680
2016-02-26T10:18:53.799Z,6636
2016-02-26T10:19:53.791Z,6716
2016-02-26T10:20:53.769Z,6656
2016-02-26T10:21:53.744Z,6544
2016-02-26T10:22:53.759Z,6428
2016-02-26T10:23:54.397Z,6472
2016-02-26T10:24:53.754Z,6380
2016-02-26T10:25:53.753Z,6068
2016-02-26T10:26:53.720Z,5828
2016-02-26T10:27:53.737Z,6088
2016-02-26T10:28:54.238Z,6228
2016-02-26T10:29:53.739Z,6332
2016-02-26T10:30:53.740Z,6488
2016-02-26T10:31:53.711Z,6560
2016-02-26T10:32:53.728Z,6592
2016-02-26T10:33:53.731Z,6584
2016-02-26T10:34:53.701Z,6640
2016-02-26T10:35:53.720Z,6756
2016-02-26T10:36:53.706Z,6896
2016-02-26T10:37:53.708Z,6864
2016-02-26T10:38:53.679Z,6636
2016-02-26T10:39:53.682Z,6036
2016-02-26T10:40:53.715Z,6612
2016-02-26T10:41:53.687Z,6608
2016-02-26T10:42:53.674Z,6484
2016-02-26T10:43:53.676Z,6344
2016-02-26T10:44:53.664Z,6544
2016-02-26T10:45:53.698Z,6756
2016-02-26T10:46:53.684Z,6816
2016-02-26T10:47:53.672Z,6444
2016-02-26T10:48:53.675Z,6776
2016-02-26T10:49:53.677Z,6848
2016-02-26T10:50:53.727Z,6916
2016-02-26T10:51:53.683Z,6832
2016-02-26T10:52:53.670Z,7172
2016-02-26T10:53:53.672Z,7312
2016-02-26T10:54:53.675Z,6200
2016-02-26T10:55:53.677Z,6032
2016-02-26T10:56:53.664Z,5908
2016-02-26T10:57:53.667Z,5900
2016-02-26T10:58:53.670Z,5784
2016-02-26T10:59:53.750Z,5836
2016-02-26T11:00:53.707Z,5884
2016-02-26T11:01:53.678Z,5944
2016-02-26T11:02:53.649Z,5964
2016-02-26T11:03:53.652Z,6040
2016-02-26T11:04:53.655Z,6096
2016-02-26T11:05:53.688Z,6116
2016-02-26T11:06:53.660Z,6168
2016-02-26T11:07:53.646Z,6304
2016-02-26T11:08:53.650Z,6432
2016-02-26T11:09:53.669Z,6504
2016-02-26T11:10:53.655Z,6544
2016-02-26T11:11:53.657Z,6560
2016-02-26T11:12:53.677Z,6548
2016-02-26T11:13:53.663Z,6504
2016-02-26T11:14:53.666Z,6468
2016-02-26T11:15:53.653Z,6432
2016-02-26T11:16:53.640Z,6420
2016-02-26T11:17:53.690Z,6448
2016-02-26T11:18:54.114Z,6468
2016-02-26T11:19:53.664Z,6464
2016-02-26T11:20:53.651Z,6440
2016-02-26T11:21:53.622Z,6428
2016-02-26T11:22:53.625Z,6420
2016-02-26T11:23:53.611Z,6444
2016-02-26T11:24:53.614Z,6484
2016-02-26T11:25:53.633Z,6524
2016-02-26T11:26:53.620Z,6568
2016-02-26T11:27:53.622Z,6636
2016-02-26T11:28:53.626Z,6656
2016-02-26T11:29:53.613Z,6664
2016-02-26T11:30:53.631Z,6676
2016-02-26T11:31:54.071Z,6704
2016-02-26T11:32:53.621Z,6788
2016-02-26T11:33:53.624Z,6872
2016-02-26T11:34:53.594Z,6988
2016-02-26T11:35:53.613Z,7112
2016-02-26T11:36:53.600Z,7220
2016-02-26T11:37:53.619Z,7280
2016-02-26T11:38:53.606Z,7352
2016-02-26T11:39:53.593Z,7388
2016-02-26T11:40:53.595Z,7440
2016-02-26T11:41:53.599Z,7504
2016-02-26T11:42:53.616Z,7608
2016-02-26T11:43:53.619Z,7696
2016-02-26T11:44:53.590Z,7844
2016-02-26T11:45:53.609Z,7956
2016-02-26T11:46:53.578Z,8056
2016-02-26T11:47:53.581Z,8116
2016-02-26T11:48:53.584Z,8200
2016-02-26T11:49:53.601Z,8296
2016-02-26T11:50:53.588Z,8424
2016-02-26T11:51:53.576Z,8496
2016-02-26T11:52:53.594Z,8504
2016-02-26T11:53:53.581Z,9052
2016-02-26T11:54:53.584Z,8140
2016-02-26T11:55:53.587Z,8116
2016-02-26T11:56:53.573Z,8112
2016-02-26T11:57:53.576Z,8168
2016-02-26T11:58:53.578Z,8204
2016-02-26T11:59:53.581Z,8168
2016-02-26T12:00:53.584Z,8348
2016-02-26T12:01:53.586Z,9276
2016-02-26T12:02:53.574Z,9016
2016-02-26T12:03:53.561Z,8672
2016-02-26T12:04:53.563Z,6904
2016-02-26T12:05:53.644Z,6548
2016-02-26T12:06:53.553Z,6880
2016-02-26T12:07:53.603Z,7576
2016-02-26T12:08:53.558Z,7252
2016-02-26T12:09:53.561Z,6712
2016-02-26T12:10:53.563Z,7104
2016-02-26T12:11:53.566Z,5936
2016-02-26T12:12:53.554Z,5624
2016-02-26T12:13:53.556Z,5560
2016-02-26T12:14:53.543Z,5568
2016-02-26T12:15:53.562Z,5588
2016-02-26T12:16:53.565Z,5768
2016-02-26T12:17:53.551Z,5700
2016-02-26T12:18:53.570Z,5740
2016-02-26T12:19:53.557Z,6076
2016-02-26T12:20:53.559Z,5816
2016-02-26T12:21:53.578Z,5892
2016-02-26T12:22:53.550Z,5956
2016-02-26T12:23:53.552Z,6016
2016-02-26T12:24:53.539Z,6032
2016-02-26T12:25:53.542Z,6116
2016-02-26T12:26:53.561Z,7548
2016-02-26T12:27:53.563Z,7684
2016-02-26T12:28:53.534Z,7384
2016-02-26T12:29:53.537Z,7200
2016-02-26T12:30:53.539Z,6040
2016-02-26T12:31:53.542Z,5932
2016-02-26T12:32:53.530Z,5944
2016-02-26T12:33:53.533Z,5992
2016-02-26T12:34:53.535Z,6140
2016-02-26T12:35:53.569Z,6096
2016-02-26T12:36:53.415Z,6136
2016-02-26T12:37:53.527Z,6244
2016-02-26T12:38:53.530Z,6400
2016-02-26T12:39:53.564Z,6632
2016-02-26T12:40:53.519Z,6880
2016-02-26T12:41:53.538Z,7388
2016-02-26T12:42:53.541Z,7940
2016-02-26T12:43:53.513Z,7436
2016-02-26T12:44:53.530Z,7344
2016-02-26T12:45:53.518Z,7336
2016-02-26T12:46:53.520Z,7416
2016-02-26T12:47:53.507Z,7488
2016-02-26T12:48:53.541Z,7532
2016-02-26T12:49:53.559Z,7608
2016-02-26T12:50:53.531Z,7656
2016-02-26T12:51:53.534Z,7624
2016-02-26T12:52:53.521Z,7516
2016-02-26T12:53:53.508Z,7384
2016-02-26T12:54:53.542Z,7284
2016-02-26T12:55:53.514Z,7180
2016-02-26T12:56:53.516Z,7052
2016-02-26T12:57:53.487Z,6916
2016-02-26T12:58:53.850Z,6816
2016-02-26T12:59:53.508Z,6996
2016-02-26T13:00:53.511Z,6884
2016-02-26T13:01:53.498Z,6780
2016-02-26T13:02:53.516Z,6516
2016-02-26T13:03:53.489Z,6516
2016-02-26T13:04:53.505Z,6556
2016-02-26T13:05:53.524Z,7568
2016-02-26T13:06:53.480Z,7288
2016-02-26T13:07:53.499Z,7352
2016-02-26T13:08:53.485Z,6592
2016-02-26T13:09:53.488Z,6836
2016-02-26T13:10:53.475Z,7300
2016-02-26T13:11:53.509Z,6556
2016-02-26T13:12:53.480Z,7028
2016-02-26T13:13:53.483Z,6676
2016-02-26T13:14:53.485Z,6792
2016-02-26T13:15:53.551Z,6372
2016-02-26T13:16:54.320Z,6360
2016-02-26T13:17:53.479Z,6216
2016-02-26T13:18:53.481Z,6340
2016-02-26T13:19:53.469Z,6812
2016-02-26T13:20:53.549Z,6608
2016-02-26T13:21:53.473Z,6464
2016-02-26T13:22:53.476Z,6304
2016-02-26T13:23:53.525Z,6272
2016-02-26T13:24:53.467Z,6940
2016-02-26T13:25:53.484Z,6336
2016-02-26T13:26:53.472Z,6268
2016-02-26T13:27:53.458Z,6512
2016-02-26T13:28:53.477Z,6756
2016-02-26T13:29:53.449Z,6780
2016-02-26T13:30:53.467Z,6932
2016-02-26T13:31:53.453Z,6832
2016-02-26T13:32:53.472Z,6916
2016-02-26T13:33:53.444Z,6624
2016-02-26T13:34:53.447Z,6392
2016-02-26T13:35:53.481Z,6416
2016-02-26T13:36:53.436Z,6380
2016-02-26T13:37:53.470Z,6584
2016-02-26T13:38:53.441Z,6596
2016-02-26T13:39:53.444Z,6708
2016-02-26T13:40:53.447Z,6712
2016-02-26T13:41:53.434Z,6652
2016-02-26T13:42:53.452Z,6580
2016-02-26T13:43:53.460Z,6400
2016-02-26T13:44:53.446Z,6376
2016-02-26T13:45:53.449Z,5964
2016-02-26T13:46:53.437Z,5876
2016-02-26T13:47:53.455Z,5876
2016-02-26T13:48:53.442Z,5904
2016-02-26T13:49:53.445Z,6032
2016-02-26T13:50:53.462Z,6080
2016-02-26T13:51:53.450Z,6100
2016-02-26T13:52:53.469Z,6168
2016-02-26T13:53:53.456Z,6228
2016-02-26T13:54:53.443Z,6260
2016-02-26T13:55:53.446Z,6252